createdAt,value
2018-03-23T00:00:02.524Z,17.90
2018-03-23T00:01:02.492Z,17.50
2018-03-23T00:02:02.425Z,16.90
2018-03-23T00:03:02.374Z,18.00
2018-03-23T00:04:02.331Z,17.80
2018-03-23T00:05:02.275Z,18.40
2018-03-23T00:06:02.250Z,18.60
2018-03-23T00:07:02.179Z,18.20
2018-03-23T00:08:02.129Z,17.90
2018-03-23T00:09:02.077Z,16.80
2018-03-23T00:10:02.032Z,17.30
2018-03-23T00:11:02.011Z,20.00
2018-03-23T00:12:01.935Z,18.00
2018-03-23T00:13:01.885Z,17.50
2018-03-23T00:15:33.448Z,16.60
2018-03-23T00:16:33.412Z,17.30
2018-03-23T00:17:33.339Z,17.50
2018-03-23T00:18:33.295Z,16.30
2018-03-23T00:19:33.238Z,17.30
2018-03-23T00:20:33.194Z,18.80
2018-03-23T00:21:33.168Z,18.20
2018-03-23T00:22:33.099Z,16.60
2018-03-23T00:23:33.043Z,16.60
2018-03-23T00:24:32.994Z,16.80
2018-03-23T00:25:32.944Z,16.40
2018-03-23T00:26:32.922Z,16.40
2018-03-23T00:27:32.848Z,17.70
2018-03-23T00:28:32.801Z,17.00
2018-03-23T00:29:32.747Z,16.10
2018-03-23T00:30:32.696Z,15.70
2018-03-23T00:31:32.678Z,16.60
2018-03-23T00:32:32.599Z,16.10
2018-03-23T00:33:32.556Z,16.70
2018-03-23T00:34:32.504Z,16.40
2018-03-23T00:35:32.454Z,14.90
2018-03-23T00:36:32.431Z,15.30
2018-03-23T00:37:32.360Z,15.60
2018-03-23T00:38:32.312Z,16.90
2018-03-23T00:39:32.258Z,16.40
2018-03-23T00:40:32.209Z,15.80
2018-03-23T00:41:32.186Z,16.40
2018-03-23T00:42:32.112Z,15.80
2018-03-23T00:43:32.062Z,15.90
2018-03-23T00:44:32.018Z,15.90
2018-03-23T00:45:31.965Z,15.50
2018-03-23T00:46:31.941Z,20.00
2018-03-23T00:47:31.867Z,18.00
2018-03-23T00:48:31.820Z,18.10
2018-03-23T00:49:31.769Z,16.70
2018-03-23T00:50:31.721Z,16.80
2018-03-23T00:51:31.693Z,14.00
2018-03-23T00:52:31.625Z,15.00
2018-03-23T00:53:31.580Z,14.20
2018-03-23T00:54:31.526Z,15.00
2018-03-23T00:55:31.476Z,15.90
2018-03-23T00:56:31.451Z,15.10
2018-03-23T00:57:31.378Z,16.30
2018-03-23T00:58:31.402Z,14.90
2018-03-23T00:59:31.336Z,15.80
2018-03-23T01:00:31.230Z,16.10
2018-03-23T01:01:31.208Z,15.90
2018-03-23T01:02:31.133Z,16.60
2018-03-23T01:03:31.083Z,16.60
2018-03-23T01:04:31.046Z,14.90
2018-03-23T01:05:30.990Z,16.00
2018-03-23T01:06:30.965Z,16.80
2018-03-23T01:07:30.892Z,15.70
2018-03-23T01:08:30.840Z,17.20
2018-03-23T01:09:30.791Z,16.70
2018-03-23T01:10:30.741Z,18.50
2018-03-23T01:11:30.718Z,16.90
2018-03-23T01:12:30.645Z,18.80
2018-03-23T01:13:30.598Z,16.50
2018-03-23T01:14:30.593Z,15.80
2018-03-23T01:15:30.499Z,20.00
2018-03-23T01:16:30.475Z,21.40
2018-03-23T01:17:30.401Z,20.90
2018-03-23T01:18:30.352Z,18.60
2018-03-23T01:19:30.306Z,17.80
2018-03-23T01:20:30.258Z,18.70
2018-03-23T01:21:30.230Z,19.00
2018-03-23T01:22:30.155Z,19.30
2018-03-23T01:23:30.116Z,17.80
2018-03-23T01:24:30.057Z,18.00
2018-03-23T01:25:30.011Z,18.20
2018-03-23T01:26:29.986Z,17.90
2018-03-23T01:27:29.920Z,19.50
2018-03-23T01:28:29.863Z,19.70
2018-03-23T01:29:29.817Z,20.30
2018-03-23T01:30:29.789Z,18.60
2018-03-23T01:31:29.738Z,18.80
2018-03-23T01:32:29.668Z,19.70
2018-03-23T01:33:29.618Z,17.60
2018-03-23T01:34:29.572Z,17.00
2018-03-23T01:35:29.518Z,18.80
2018-03-23T01:36:29.497Z,17.70
2018-03-23T01:37:29.423Z,16.00
2018-03-23T01:38:29.372Z,18.40
2018-03-23T01:39:29.324Z,18.20
2018-03-23T01:40:29.276Z,18.50
2018-03-23T01:41:29.248Z,17.90
2018-03-23T01:42:29.178Z,18.30
2018-03-23T01:43:29.132Z,18.40
2018-03-23T01:44:29.082Z,18.50
2018-03-23T01:45:29.032Z,15.90
2018-03-23T01:46:29.007Z,18.80
2018-03-23T01:47:28.936Z,20.20
2018-03-23T01:48:28.886Z,18.10
2018-03-23T01:49:28.835Z,18.30
2018-03-23T01:50:28.784Z,19.20
2018-03-23T01:51:28.763Z,19.30
2018-03-23T01:52:28.689Z,18.70
2018-03-23T01:53:28.639Z,18.40
2018-03-23T01:54:28.593Z,18.70
2018-03-23T01:55:28.541Z,18.60
2018-03-23T01:56:28.518Z,19.00
2018-03-23T01:57:28.442Z,18.40
2018-03-23T01:58:28.394Z,17.70
2018-03-23T01:59:28.347Z,17.90
2018-03-23T02:00:28.296Z,18.00
2018-03-23T02:01:28.272Z,18.00
2018-03-23T02:02:28.194Z,16.60
2018-03-23T02:03:28.149Z,17.20
2018-03-23T02:04:28.097Z,17.30
2018-03-23T02:05:28.050Z,17.90
2018-03-23T02:06:28.023Z,17.20
2018-03-23T02:07:27.954Z,17.50
2018-03-23T02:08:27.904Z,17.00
2018-03-23T02:09:27.861Z,17.20
2018-03-23T02:10:27.805Z,17.30
2018-03-23T02:11:27.780Z,17.30
2018-03-23T02:12:27.708Z,17.60
2018-03-23T02:13:27.654Z,17.60
2018-03-23T02:14:27.608Z,16.20
2018-03-23T02:15:27.556Z,17.40
2018-03-23T02:16:27.545Z,18.30
2018-03-23T02:17:27.459Z,18.10
2018-03-23T02:18:27.407Z,19.30
2018-03-23T02:19:27.358Z,19.20
2018-03-23T02:20:27.313Z,18.60
2018-03-23T02:21:27.281Z,19.60
2018-03-23T02:22:27.210Z,19.40
2018-03-23T02:23:27.163Z,18.30
2018-03-23T02:24:27.110Z,18.80
2018-03-23T02:25:27.064Z,18.50
2018-03-23T02:26:27.038Z,18.50
2018-03-23T02:27:26.960Z,17.60
2018-03-23T02:28:26.914Z,18.60
2018-03-23T02:29:26.868Z,17.90
2018-03-23T02:30:26.814Z,18.00
2018-03-23T02:31:26.791Z,17.80
2018-03-23T02:32:26.714Z,18.00
2018-03-23T02:33:26.669Z,17.30
2018-03-23T02:34:26.617Z,18.20
2018-03-23T02:35:26.565Z,18.00
2018-03-23T02:36:26.555Z,17.30
2018-03-23T02:37:26.470Z,17.70
2018-03-23T02:38:26.417Z,17.90
2018-03-23T02:39:26.368Z,17.30
2018-03-23T02:40:26.317Z,18.00
2018-03-23T02:41:26.291Z,18.10
2018-03-23T02:42:26.221Z,17.70
2018-03-23T02:43:26.168Z,16.90
2018-03-23T02:44:26.125Z,17.90
2018-03-23T02:45:26.071Z,18.30
2018-03-23T02:46:26.043Z,17.30
2018-03-23T02:47:25.987Z,18.10
2018-03-23T02:48:25.919Z,18.10
2018-03-23T02:49:25.871Z,17.40
2018-03-23T02:50:25.824Z,17.90
2018-03-23T02:51:25.824Z,17.50
2018-03-23T02:52:25.728Z,18.30
2018-03-23T02:53:25.671Z,17.10
2018-03-23T02:54:25.626Z,16.80
2018-03-23T02:55:25.573Z,17.00
2018-03-23T02:56:25.521Z,17.20
2018-03-23T02:57:25.497Z,17.20
2018-03-23T02:58:25.421Z,17.60
2018-03-23T02:59:25.380Z,16.90
2018-03-23T03:00:25.330Z,17.40
2018-03-23T03:01:25.278Z,17.20
2018-03-23T03:02:25.250Z,17.00
2018-03-23T03:03:25.175Z,16.90
2018-03-23T03:04:25.126Z,17.00
2018-03-23T03:05:25.079Z,17.40
2018-03-23T03:06:25.027Z,18.10
2018-03-23T03:07:25.001Z,17.10
2018-03-23T03:08:24.926Z,17.10
2018-03-23T03:09:24.875Z,17.20
2018-03-23T03:10:24.831Z,17.20
2018-03-23T03:11:24.781Z,17.10
2018-03-23T03:12:24.749Z,17.00
2018-03-23T03:13:24.680Z,17.30
2018-03-23T03:14:24.626Z,18.00
2018-03-23T03:15:24.578Z,17.90
2018-03-23T03:16:24.532Z,17.70
2018-03-23T03:17:24.507Z,17.50
2018-03-23T03:18:24.429Z,17.20
2018-03-23T03:19:24.382Z,18.10
2018-03-23T03:20:24.332Z,18.60
2018-03-23T03:21:24.278Z,18.00
2018-03-23T03:22:24.251Z,17.90
2018-03-23T03:23:24.181Z,18.50
2018-03-23T03:24:24.130Z,18.50
2018-03-23T03:25:24.082Z,18.30
2018-03-23T03:26:24.032Z,19.50
2018-03-23T03:27:24.004Z,18.00
2018-03-23T03:28:23.934Z,17.90
2018-03-23T03:29:23.884Z,19.20
2018-03-23T03:30:23.834Z,19.50
2018-03-23T03:31:23.786Z,19.00
2018-03-23T03:32:23.758Z,20.20
2018-03-23T03:33:23.682Z,19.70
2018-03-23T03:34:23.631Z,19.00
2018-03-23T03:35:23.582Z,19.20
2018-03-23T03:36:23.532Z,18.80
2018-03-23T03:37:23.509Z,19.20
2018-03-23T03:38:23.433Z,19.70
2018-03-23T03:39:23.381Z,20.70
2018-03-23T03:40:23.336Z,20.40
2018-03-23T03:41:23.282Z,21.00
2018-03-23T03:42:23.257Z,20.70
2018-03-23T03:43:23.185Z,20.30
2018-03-23T03:44:23.130Z,19.50
2018-03-23T03:45:23.086Z,21.20
2018-03-23T03:46:23.035Z,20.20
2018-03-23T03:47:23.008Z,20.10
2018-03-23T03:48:22.942Z,19.90
2018-03-23T03:49:22.883Z,20.20
2018-03-23T03:50:22.834Z,20.40
2018-03-23T03:51:22.789Z,20.70
2018-03-23T03:52:22.758Z,20.10
2018-03-23T03:53:22.685Z,20.20
2018-03-23T03:54:22.635Z,20.70
2018-03-23T03:55:22.589Z,21.30
2018-03-23T03:56:22.537Z,21.90
2018-03-23T03:57:22.507Z,20.40
2018-03-23T03:58:22.435Z,20.30
2018-03-23T03:59:22.388Z,20.80
2018-03-23T04:00:22.339Z,20.60
2018-03-23T04:01:22.286Z,20.40
2018-03-23T04:02:22.259Z,20.50
2018-03-23T04:03:22.188Z,21.10
2018-03-23T04:04:22.139Z,20.60
2018-03-23T04:05:22.088Z,20.90
2018-03-23T04:06:22.036Z,20.80
2018-03-23T04:07:22.014Z,20.50
2018-03-23T04:08:21.944Z,21.10
2018-03-23T04:09:21.886Z,20.80
2018-03-23T04:10:21.839Z,20.90
2018-03-23T04:11:21.785Z,21.80
2018-03-23T04:12:21.760Z,21.50
2018-03-23T04:13:21.687Z,19.90
2018-03-23T04:14:21.637Z,20.80
2018-03-23T04:15:21.587Z,20.30
2018-03-23T04:16:21.539Z,20.50
2018-03-23T04:17:21.510Z,20.20
2018-03-23T04:18:21.438Z,20.40
2018-03-23T04:19:21.392Z,20.70
2018-03-23T04:20:21.338Z,21.30
2018-03-23T04:21:21.287Z,20.70
2018-03-23T04:22:21.261Z,21.50
2018-03-23T04:23:21.187Z,21.60
2018-03-23T04:24:21.141Z,21.40
2018-03-23T04:25:21.093Z,22.30
2018-03-23T04:26:21.041Z,21.10
2018-03-23T04:27:21.018Z,21.30
2018-03-23T04:28:20.940Z,20.90
2018-03-23T04:29:20.885Z,21.20
2018-03-23T04:30:20.838Z,20.60
2018-03-23T04:31:20.795Z,20.40
2018-03-23T04:32:20.766Z,21.70
2018-03-23T04:33:20.693Z,21.30
2018-03-23T04:34:20.642Z,21.10
2018-03-23T04:35:20.591Z,20.70
2018-03-23T04:36:20.546Z,21.10
2018-03-23T04:37:20.515Z,20.90
2018-03-23T04:38:20.439Z,21.30
2018-03-23T04:39:20.395Z,22.10
2018-03-23T04:40:20.344Z,19.30
2018-03-23T04:41:20.297Z,19.50
2018-03-23T04:42:20.271Z,20.00
2018-03-23T04:43:20.192Z,18.90
2018-03-23T04:44:20.142Z,19.30
2018-03-23T04:45:20.098Z,19.60
2018-03-23T04:46:20.043Z,20.90
2018-03-23T04:47:20.019Z,21.40
2018-03-23T04:48:19.946Z,21.60
2018-03-23T04:49:19.898Z,22.80
2018-03-23T04:50:19.849Z,20.50
2018-03-23T04:51:19.799Z,21.60
2018-03-23T04:52:19.771Z,21.90
2018-03-23T04:53:19.699Z,23.20
2018-03-23T04:54:19.650Z,22.30
2018-03-23T04:55:19.602Z,23.10
2018-03-23T04:56:19.549Z,23.30
2018-03-23T04:57:19.522Z,22.10
2018-03-23T04:58:19.452Z,21.00
2018-03-23T04:59:19.403Z,20.80
2018-03-23T05:00:19.353Z,21.40
2018-03-23T05:01:19.304Z,19.10
2018-03-23T05:02:19.273Z,21.30
2018-03-23T05:03:19.206Z,20.50
2018-03-23T05:04:19.153Z,21.70
2018-03-23T05:05:19.115Z,21.10
2018-03-23T05:06:19.056Z,21.20
2018-03-23T05:07:19.028Z,21.50
2018-03-23T05:08:18.954Z,20.70
2018-03-23T05:09:18.907Z,20.60
2018-03-23T05:10:18.859Z,20.90
2018-03-23T05:11:18.806Z,21.90
2018-03-23T05:12:18.784Z,21.60
2018-03-23T05:13:18.720Z,24.30
2018-03-23T05:14:18.661Z,20.70
2018-03-23T05:15:18.615Z,21.90
2018-03-23T05:16:18.562Z,21.90
2018-03-23T05:17:18.532Z,22.30
2018-03-23T05:18:18.458Z,22.10
2018-03-23T05:19:18.417Z,23.10
2018-03-23T05:20:18.368Z,23.40
2018-03-23T05:21:18.312Z,22.90
2018-03-23T05:22:18.286Z,22.60
2018-03-23T05:23:18.219Z,23.10
2018-03-23T05:24:18.167Z,23.80
2018-03-23T05:25:18.122Z,23.70
2018-03-23T05:26:18.068Z,23.10
2018-03-23T05:27:18.040Z,21.50
2018-03-23T05:28:17.975Z,22.60
2018-03-23T05:29:17.920Z,22.70
2018-03-23T05:30:17.866Z,22.60
2018-03-23T05:31:17.819Z,22.90
2018-03-23T05:32:17.772Z,23.20
2018-03-23T05:33:17.743Z,23.80
2018-03-23T05:34:17.666Z,23.30
2018-03-23T05:35:17.618Z,22.70
2018-03-23T05:36:17.570Z,22.30
2018-03-23T05:37:17.523Z,22.50
2018-03-23T05:38:17.498Z,21.70
2018-03-23T05:39:17.425Z,23.20
2018-03-23T05:40:17.371Z,22.50
2018-03-23T05:41:17.321Z,21.50
2018-03-23T05:42:17.269Z,20.90
2018-03-23T05:43:17.243Z,22.40
2018-03-23T05:44:17.170Z,21.80
2018-03-23T05:45:17.123Z,22.60
2018-03-23T05:46:17.140Z,23.20
2018-03-23T05:47:17.024Z,22.40
2018-03-23T05:48:16.996Z,22.70
2018-03-23T05:49:16.927Z,22.70
2018-03-23T05:50:16.874Z,23.30
2018-03-23T05:51:16.826Z,23.70
2018-03-23T05:52:16.775Z,22.40
2018-03-23T05:53:16.748Z,23.20
2018-03-23T05:54:16.678Z,23.10
2018-03-23T05:55:16.631Z,22.90
2018-03-23T05:56:16.579Z,20.90
2018-03-23T05:57:16.530Z,22.80
2018-03-23T05:58:16.509Z,22.60
2018-03-23T05:59:16.429Z,22.20
2018-03-23T06:00:16.382Z,21.50
2018-03-23T06:01:16.333Z,24.80
2018-03-23T06:02:16.279Z,25.80
2018-03-23T06:03:16.299Z,24.90
2018-03-23T06:04:16.182Z,23.40
2018-03-23T06:05:16.132Z,22.90
2018-03-23T06:06:16.083Z,24.20
2018-03-23T06:07:16.037Z,23.00
2018-03-23T06:08:16.006Z,23.80
2018-03-23T06:09:15.938Z,23.10
2018-03-23T06:10:15.886Z,23.10
2018-03-23T06:11:15.836Z,22.60
2018-03-23T06:12:15.788Z,23.10
2018-03-23T06:13:15.762Z,23.60
2018-03-23T06:14:15.687Z,24.20
2018-03-23T06:15:15.639Z,22.80
2018-03-23T06:16:15.588Z,22.80
2018-03-23T06:17:15.540Z,22.00
2018-03-23T06:18:15.513Z,21.40
2018-03-23T06:19:15.441Z,21.20
2018-03-23T06:20:15.395Z,21.00
2018-03-23T06:21:15.343Z,20.60
2018-03-23T06:22:15.297Z,20.70
2018-03-23T06:23:15.266Z,21.20
2018-03-23T06:24:15.195Z,21.50
2018-03-23T06:25:15.146Z,21.70
2018-03-23T06:26:15.096Z,22.60
2018-03-23T06:27:15.050Z,22.40
2018-03-23T06:28:15.024Z,23.30
2018-03-23T06:29:14.952Z,23.20
2018-03-23T06:30:14.900Z,24.20
2018-03-23T06:31:14.849Z,27.20
2018-03-23T06:32:14.804Z,22.30
2018-03-23T06:33:14.777Z,21.80
2018-03-23T06:34:14.704Z,22.90
2018-03-23T06:35:14.655Z,22.00
2018-03-23T06:36:14.607Z,23.60
2018-03-23T06:37:14.555Z,22.60
2018-03-23T06:38:14.529Z,20.00
2018-03-23T06:39:14.456Z,20.40
2018-03-23T06:40:14.407Z,22.00
2018-03-23T06:41:14.360Z,22.10
2018-03-23T06:42:14.313Z,21.70
2018-03-23T06:43:14.286Z,22.20
2018-03-23T06:44:14.214Z,24.30
2018-03-23T06:45:14.159Z,23.30
2018-03-23T06:46:14.115Z,24.40
2018-03-23T06:47:14.062Z,23.50
2018-03-23T06:48:14.037Z,26.60
2018-03-23T06:49:13.967Z,24.60
2018-03-23T06:50:13.915Z,22.90
2018-03-23T06:51:13.866Z,23.30
2018-03-23T06:52:13.817Z,23.20
2018-03-23T06:53:13.791Z,25.50
2018-03-23T06:54:13.720Z,23.90
2018-03-23T06:55:13.669Z,25.00
2018-03-23T06:56:13.616Z,24.60
2018-03-23T06:57:13.570Z,25.30
2018-03-23T06:58:13.551Z,26.70
2018-03-23T06:59:13.474Z,24.70
2018-03-23T07:00:13.428Z,22.60
2018-03-23T07:01:13.375Z,25.20
2018-03-23T07:02:13.325Z,24.70
2018-03-23T07:03:13.302Z,25.30
2018-03-23T07:04:13.226Z,24.30
2018-03-23T07:05:13.180Z,26.00
2018-03-23T07:06:13.128Z,25.80
2018-03-23T07:07:13.077Z,26.50
2018-03-23T07:08:13.058Z,26.80
2018-03-23T07:09:12.980Z,24.80
2018-03-23T07:10:12.931Z,27.20
2018-03-23T07:11:12.879Z,26.30
2018-03-23T07:12:12.829Z,25.80
2018-03-23T07:13:12.807Z,24.10
2018-03-23T07:14:12.734Z,24.70
2018-03-23T07:15:12.683Z,26.20
2018-03-23T07:16:12.630Z,26.60
2018-03-23T07:17:12.595Z,24.10
2018-03-23T07:18:12.559Z,25.00
2018-03-23T07:19:12.488Z,24.30
2018-03-23T07:20:12.436Z,26.80
2018-03-23T07:21:12.383Z,23.60
2018-03-23T07:22:12.337Z,22.40
2018-03-23T07:23:12.310Z,23.50
2018-03-23T07:24:12.240Z,23.80
2018-03-23T07:25:12.188Z,21.30
2018-03-23T07:26:12.143Z,22.50
2018-03-23T07:27:12.093Z,22.40
2018-03-23T07:28:12.066Z,22.00
2018-03-23T07:29:11.994Z,22.40
2018-03-23T07:30:11.944Z,21.20
2018-03-23T07:31:11.895Z,23.10
2018-03-23T07:32:11.844Z,21.40
2018-03-23T07:33:11.822Z,22.80
2018-03-23T07:34:11.771Z,21.80
2018-03-23T07:35:11.697Z,23.20
2018-03-23T07:36:11.657Z,23.40
2018-03-23T07:37:11.602Z,24.30
2018-03-23T07:38:11.580Z,25.60
2018-03-23T07:39:11.501Z,24.20
2018-03-23T07:40:11.452Z,24.30
2018-03-23T07:41:11.404Z,22.40
2018-03-23T07:42:11.355Z,24.40
2018-03-23T07:43:11.331Z,25.10
2018-03-23T07:44:11.255Z,26.90
2018-03-23T07:45:11.205Z,25.00
2018-03-23T07:46:11.158Z,24.70
2018-03-23T07:47:11.107Z,24.10
2018-03-23T07:48:11.084Z,24.70
2018-03-23T07:49:11.012Z,26.30
2018-03-23T07:50:10.960Z,26.00
2018-03-23T07:51:10.915Z,25.70
2018-03-23T07:52:10.866Z,25.30
2018-03-23T07:53:10.838Z,24.90
2018-03-23T07:54:10.768Z,27.20
2018-03-23T07:55:10.717Z,26.70
2018-03-23T07:56:10.665Z,26.90
2018-03-23T07:57:10.619Z,26.20
2018-03-23T07:58:10.596Z,26.90
2018-03-23T07:59:10.520Z,27.00
2018-03-23T08:00:10.470Z,24.30
2018-03-23T08:01:10.450Z,25.70
2018-03-23T08:02:10.374Z,25.00
2018-03-23T08:03:10.348Z,25.00
2018-03-23T08:04:10.275Z,25.30
2018-03-23T08:05:10.226Z,26.80
2018-03-23T08:06:10.176Z,27.70
2018-03-23T08:07:10.127Z,28.40
2018-03-23T08:08:10.107Z,28.20
2018-03-23T08:09:10.031Z,26.60
2018-03-23T08:10:09.985Z,28.40
2018-03-23T08:11:09.933Z,27.60
2018-03-23T08:12:09.880Z,28.50
2018-03-23T08:13:09.872Z,26.80
2018-03-23T08:14:09.791Z,28.40
2018-03-23T08:15:09.741Z,27.70
2018-03-23T08:16:09.686Z,27.20
2018-03-23T08:17:09.636Z,28.20
2018-03-23T08:18:09.587Z,27.40
2018-03-23T08:19:09.563Z,27.10
2018-03-23T08:20:09.494Z,26.50
2018-03-23T08:21:09.442Z,25.90
2018-03-23T08:22:09.399Z,24.60
2018-03-23T08:23:09.340Z,27.00
2018-03-23T08:24:09.317Z,26.90
2018-03-23T08:25:09.245Z,26.70
2018-03-23T08:26:09.196Z,26.20
2018-03-23T08:27:09.146Z,26.70
2018-03-23T08:28:09.097Z,26.40
2018-03-23T08:29:09.072Z,26.00
2018-03-23T08:30:09.000Z,26.40
2018-03-23T08:31:08.964Z,25.90
2018-03-23T08:32:08.900Z,26.10
2018-03-23T08:33:08.853Z,26.90
2018-03-23T08:34:08.826Z,26.70
2018-03-23T08:35:08.756Z,27.00
2018-03-23T08:36:08.709Z,27.10
2018-03-23T08:37:08.657Z,25.60
2018-03-23T08:38:08.605Z,25.10
2018-03-23T08:39:08.582Z,25.80
2018-03-23T08:40:08.508Z,25.00
2018-03-23T08:41:08.460Z,26.40
2018-03-23T08:42:08.410Z,24.90
2018-03-23T08:43:08.361Z,27.90
2018-03-23T08:44:08.334Z,25.20
2018-03-23T08:45:08.266Z,28.20
2018-03-23T08:46:08.214Z,27.10
2018-03-23T08:47:08.165Z,28.90
2018-03-23T08:48:08.120Z,30.10
2018-03-23T08:49:08.089Z,29.70
2018-03-23T08:50:08.016Z,26.60
2018-03-23T08:51:07.968Z,27.40
2018-03-23T08:52:07.921Z,27.70
2018-03-23T08:53:07.872Z,29.30
2018-03-23T08:54:07.846Z,28.50
2018-03-23T08:55:07.774Z,29.50
2018-03-23T08:56:07.726Z,30.30
2018-03-23T08:57:07.673Z,27.80
2018-03-23T08:58:07.624Z,31.30
2018-03-23T08:59:07.602Z,31.40
2018-03-23T09:00:07.528Z,29.20
2018-03-23T09:01:07.487Z,29.90
2018-03-23T09:02:07.439Z,29.00
2018-03-23T09:03:07.382Z,27.60
2018-03-23T09:04:07.353Z,27.80
2018-03-23T09:05:07.282Z,26.30
2018-03-23T09:06:07.239Z,28.30
2018-03-23T09:07:07.184Z,26.80
2018-03-23T09:08:07.136Z,28.80
2018-03-23T09:09:07.112Z,30.20
2018-03-23T09:10:07.044Z,31.00
2018-03-23T09:11:06.987Z,28.90
2018-03-23T09:12:06.940Z,28.30
2018-03-23T09:13:06.892Z,29.20
2018-03-23T09:14:06.867Z,31.80
2018-03-23T09:15:06.795Z,30.30
2018-03-23T09:16:06.743Z,32.20
2018-03-23T09:17:06.696Z,34.60
2018-03-23T09:18:06.644Z,30.70
2018-03-23T09:19:06.618Z,32.10
2018-03-23T09:20:06.545Z,33.30
2018-03-23T09:21:06.494Z,32.70
2018-03-23T09:22:06.449Z,30.90
2018-03-23T09:23:06.401Z,33.50
2018-03-23T09:24:06.375Z,32.10
2018-03-23T09:25:06.303Z,31.50
2018-03-23T09:26:06.253Z,34.00
2018-03-23T09:27:06.205Z,36.70
2018-03-23T09:28:06.156Z,35.80
2018-03-23T09:29:06.130Z,34.10
2018-03-23T09:30:06.055Z,33.00
2018-03-23T09:31:06.008Z,34.90
2018-03-23T09:32:05.963Z,34.90
2018-03-23T09:33:05.911Z,36.30
2018-03-23T09:34:05.884Z,37.70
2018-03-23T09:35:05.811Z,37.90
2018-03-23T09:36:05.767Z,35.70
2018-03-23T09:37:05.717Z,34.70
2018-03-23T09:38:05.682Z,37.20
2018-03-23T09:39:05.640Z,35.90
2018-03-23T09:40:05.571Z,35.70
2018-03-23T09:41:05.518Z,35.90
2018-03-23T09:42:05.472Z,32.50
2018-03-23T09:43:05.421Z,36.90
2018-03-23T09:44:05.399Z,35.00
2018-03-23T09:45:05.325Z,33.20
2018-03-23T09:46:05.275Z,33.10
2018-03-23T09:47:05.229Z,34.90
2018-03-23T09:48:05.178Z,34.50
2018-03-23T09:49:05.153Z,33.10
2018-03-23T09:50:05.080Z,33.00
2018-03-23T09:51:05.034Z,33.30
2018-03-23T09:52:04.981Z,34.10
2018-03-23T09:53:04.936Z,31.80
2018-03-23T09:54:04.910Z,34.90
2018-03-23T09:55:04.839Z,36.00
2018-03-23T09:56:04.787Z,36.20
2018-03-23T09:57:04.741Z,37.50
2018-03-23T09:58:04.692Z,34.80
2018-03-23T09:59:04.669Z,35.00
2018-03-23T10:00:04.607Z,35.20
2018-03-23T10:01:04.554Z,38.60
2018-03-23T10:02:04.498Z,34.20
2018-03-23T10:03:04.459Z,36.40
2018-03-23T10:04:04.483Z,36.20
2018-03-23T10:05:04.360Z,35.10
2018-03-23T10:06:04.301Z,36.70
2018-03-23T10:07:04.254Z,37.60
2018-03-23T10:08:04.205Z,36.80
2018-03-23T10:09:04.186Z,39.00
2018-03-23T10:10:04.109Z,41.20
2018-03-23T10:11:04.070Z,40.90
2018-03-23T10:12:04.015Z,40.80
2018-03-23T10:13:03.965Z,42.50
2018-03-23T10:14:03.944Z,41.20
2018-03-23T10:15:03.873Z,42.20
2018-03-23T10:16:03.818Z,38.30
2018-03-23T10:17:03.772Z,42.80
2018-03-23T10:18:03.723Z,44.40
2018-03-23T10:19:03.698Z,39.70
2018-03-23T10:20:03.624Z,44.30
2018-03-23T10:21:03.631Z,41.70
2018-03-23T10:22:03.531Z,42.20
2018-03-23T10:23:03.481Z,38.30
2018-03-23T10:24:03.458Z,40.50
2018-03-23T10:25:03.384Z,38.70
2018-03-23T10:26:03.338Z,39.50
2018-03-23T10:27:03.293Z,40.60
2018-03-23T10:28:03.240Z,41.80
2018-03-23T10:29:03.243Z,40.90
2018-03-23T10:30:03.144Z,42.60
2018-03-23T10:31:03.097Z,39.50
2018-03-23T10:32:03.046Z,41.20
2018-03-23T10:33:02.998Z,41.40
2018-03-23T10:34:02.976Z,41.80
2018-03-23T10:35:02.903Z,40.50
2018-03-23T10:36:02.858Z,39.90
2018-03-23T10:37:02.811Z,42.50
2018-03-23T10:38:02.766Z,40.30
2018-03-23T10:39:02.733Z,41.20
2018-03-23T10:40:02.667Z,41.90
2018-03-23T10:41:02.618Z,41.70
2018-03-23T10:42:02.569Z,43.20
2018-03-23T10:43:02.525Z,43.10
2018-03-23T10:44:02.501Z,43.50
2018-03-23T10:45:02.427Z,44.10
2018-03-23T10:46:02.377Z,44.30
2018-03-23T10:47:02.330Z,44.50
2018-03-23T10:48:02.280Z,48.10
2018-03-23T10:49:02.259Z,49.00
2018-03-23T10:50:02.188Z,47.60
2018-03-23T10:51:02.140Z,48.00
2018-03-23T10:52:02.088Z,47.50
2018-03-23T10:53:02.038Z,49.90
2018-03-23T10:54:02.014Z,49.10
2018-03-23T10:55:01.944Z,48.50
2018-03-23T10:56:01.899Z,49.20
2018-03-23T10:57:01.857Z,52.70
2018-03-23T10:58:01.808Z,51.90
2018-03-23T10:59:01.777Z,53.90
2018-03-23T11:00:01.705Z,49.90
2018-03-23T11:01:01.659Z,53.10
2018-03-23T11:02:01.608Z,53.10
2018-03-23T11:03:01.562Z,52.20
2018-03-23T11:04:01.538Z,50.90
2018-03-23T11:05:01.465Z,53.40
2018-03-23T11:06:01.414Z,53.40
2018-03-23T11:07:01.371Z,53.50
2018-03-23T11:08:01.323Z,54.20
2018-03-23T11:09:01.296Z,52.90
2018-03-23T11:10:01.225Z,56.40
2018-03-23T11:11:01.178Z,56.80
2018-03-23T11:12:01.142Z,54.20
2018-03-23T11:13:01.080Z,53.20
2018-03-23T11:14:01.094Z,54.10
2018-03-23T11:15:01.007Z,55.40
2018-03-23T11:16:00.935Z,57.00
2018-03-23T11:17:00.896Z,57.50
2018-03-23T11:18:00.843Z,54.90
2018-03-23T11:19:00.794Z,56.10
2018-03-23T11:20:00.769Z,54.90
2018-03-23T11:21:00.706Z,56.00
2018-03-23T11:22:00.651Z,55.00
2018-03-23T11:23:00.600Z,53.50
2018-03-23T11:24:00.560Z,54.60
2018-03-23T11:25:00.532Z,50.70
2018-03-23T11:26:00.458Z,53.50
2018-03-23T11:27:00.410Z,54.20
2018-03-23T11:28:00.362Z,57.00
2018-03-23T11:29:00.316Z,55.70
2018-03-23T11:30:00.294Z,56.30
2018-03-23T11:31:00.220Z,57.20
2018-03-23T11:32:00.171Z,57.70
2018-03-23T11:33:00.122Z,58.40
2018-03-23T11:34:00.076Z,55.30
2018-03-23T11:35:00.057Z,58.30
2018-03-23T11:35:59.979Z,58.90
2018-03-23T11:36:59.979Z,59.40
2018-03-23T11:37:59.886Z,58.80
2018-03-23T11:38:59.838Z,61.50
2018-03-23T11:39:59.815Z,59.70
2018-03-23T11:40:59.738Z,61.10
2018-03-23T11:41:59.692Z,62.30
2018-03-23T11:42:59.644Z,59.00
2018-03-23T11:43:59.600Z,61.60
2018-03-23T11:44:59.574Z,62.50
2018-03-23T11:45:59.498Z,60.60
2018-03-23T11:46:59.452Z,63.80
2018-03-23T11:47:59.405Z,62.00
2018-03-23T11:48:59.371Z,61.90
2018-03-23T11:49:59.335Z,63.90
2018-03-23T11:50:59.263Z,65.10
2018-03-23T11:51:59.215Z,61.30
2018-03-23T11:52:59.169Z,57.80
2018-03-23T11:53:59.119Z,60.10
2018-03-23T11:54:59.111Z,64.30
2018-03-23T11:55:59.024Z,63.70
2018-03-23T11:56:58.979Z,63.40
2018-03-23T11:57:58.929Z,63.40
2018-03-23T11:58:58.884Z,60.90
2018-03-23T11:59:58.859Z,64.40
2018-03-23T12:00:58.792Z,63.80
2018-03-23T12:01:58.752Z,64.30
2018-03-23T12:02:58.743Z,66.10
2018-03-23T12:03:58.640Z,64.50
2018-03-23T12:04:58.620Z,64.50
2018-03-23T12:05:58.550Z,67.10
2018-03-23T12:06:58.501Z,67.80
2018-03-23T12:07:58.452Z,70.20
2018-03-23T12:08:58.402Z,68.30
2018-03-23T12:09:58.381Z,68.60
2018-03-23T12:10:58.347Z,67.20
2018-03-23T12:11:58.260Z,68.10
2018-03-23T12:12:58.215Z,68.20
2018-03-23T12:13:58.163Z,72.10
2018-03-23T12:14:58.147Z,73.20
2018-03-23T12:15:58.091Z,71.00
2018-03-23T12:16:58.021Z,70.90
2018-03-23T12:17:57.976Z,72.00
2018-03-23T12:18:57.924Z,71.70
2018-03-23T12:19:57.905Z,71.80
2018-03-23T12:20:57.841Z,72.70
2018-03-23T12:21:57.780Z,73.90
2018-03-23T12:22:57.733Z,70.80
2018-03-23T12:23:59.631Z,73.00
2018-03-23T12:24:57.662Z,71.40
2018-03-23T12:25:57.590Z,72.70
2018-03-23T12:26:57.541Z,72.20
2018-03-23T12:27:57.492Z,72.90
2018-03-23T12:28:57.444Z,75.00
2018-03-23T12:29:57.415Z,74.70
2018-03-23T12:30:57.350Z,73.00
2018-03-23T12:31:57.342Z,69.40
2018-03-23T12:32:57.254Z,71.00
2018-03-23T12:33:57.202Z,75.50
2018-03-23T12:34:57.182Z,71.40
2018-03-23T12:35:57.156Z,73.60
2018-03-23T12:36:57.061Z,71.00
2018-03-23T12:37:57.024Z,72.40
2018-03-23T12:38:56.964Z,72.10
2018-03-23T12:39:56.937Z,71.50
2018-03-23T12:40:56.869Z,73.10
2018-03-23T12:41:56.817Z,71.20
2018-03-23T12:42:56.772Z,72.30
2018-03-23T12:43:56.724Z,74.50
2018-03-23T12:44:56.697Z,73.00
2018-03-23T12:45:56.634Z,72.30
2018-03-23T12:46:56.579Z,72.10
2018-03-23T12:47:56.531Z,70.00
2018-03-23T12:48:56.482Z,66.50
2018-03-23T12:49:56.459Z,68.50
2018-03-23T12:50:56.424Z,69.20
2018-03-23T12:51:56.345Z,67.20
2018-03-23T12:52:56.292Z,68.30